createdAt,value
2019-03-16T00:00:31.042Z,57.20
2019-03-16T00:03:00.717Z,57.20
2019-03-16T00:05:30.415Z,56.90
2019-03-16T00:08:00.111Z,56.40
2019-03-16T00:10:29.512Z,56.10
2019-03-16T00:12:59.346Z,56.30
2019-03-16T00:15:28.891Z,56.50
2019-03-16T00:17:58.841Z,56.60
2019-03-16T00:20:28.218Z,56.50
2019-03-16T00:22:57.562Z,57.10
2019-03-16T00:25:27.186Z,58.20
2019-03-16T00:27:56.714Z,59.40
2019-03-16T00:30:26.338Z,57.70
2019-03-16T00:32:55.430Z,58.80
2019-03-16T00:35:25.132Z,58.30
2019-03-16T00:37:55.363Z,60.90
2019-03-16T00:40:31.481Z,60.70
2019-03-16T00:43:00.799Z,60.70
2019-03-16T00:45:30.229Z,59.20
2019-03-16T00:47:59.915Z,60.20
2019-03-16T00:50:29.503Z,61.90
2019-03-16T00:53:01.489Z,61.80
2019-03-16T00:55:31.073Z,63.10
2019-03-16T00:58:00.874Z,62.10
2019-03-16T01:00:30.755Z,62.80
2019-03-16T01:03:00.371Z,64.00
2019-03-16T01:05:29.853Z,61.30
2019-03-16T01:07:59.494Z,62.80
2019-03-16T01:10:29.107Z,65.20
2019-03-16T01:12:58.656Z,65.00
2019-03-16T01:15:28.199Z,65.20
2019-03-16T01:17:57.565Z,66.30
2019-03-16T01:20:27.283Z,65.70
2019-03-16T01:22:56.677Z,66.80
2019-03-16T01:25:26.475Z,66.70
2019-03-16T01:27:56.065Z,66.80
2019-03-16T01:30:25.652Z,67.60
2019-03-16T01:32:55.289Z,67.70
2019-03-16T01:35:24.821Z,68.10
2019-03-16T01:37:54.303Z,69.50
2019-03-16T01:40:24.734Z,72.20
2019-03-16T01:42:54.313Z,79.00
2019-03-16T01:45:24.764Z,86.10
2019-03-16T01:47:54.728Z,90.30
2019-03-16T01:50:24.494Z,90.40
2019-03-16T01:52:53.858Z,88.40
2019-03-16T01:55:23.702Z,89.50
2019-03-16T01:57:53.126Z,92.90
2019-03-16T02:00:22.586Z,94.20
2019-03-16T02:02:55.459Z,94.40
2019-03-16T02:05:21.840Z,95.30
2019-03-16T02:07:51.601Z,95.40
2019-03-16T02:10:21.117Z,96.80
2019-03-16T02:12:51.645Z,97.70
2019-03-16T02:15:22.225Z,97.10
2019-03-16T02:17:51.801Z,96.20
2019-03-16T02:20:21.474Z,96.50
2019-03-16T02:22:51.367Z,96.70
2019-03-16T02:25:20.979Z,97.90
2019-03-16T02:27:50.637Z,98.60
2019-03-16T02:30:20.301Z,99.30
2019-03-16T02:32:50.673Z,99.90
2019-03-16T02:35:20.538Z,99.90
2019-03-16T02:37:50.396Z,99.90
2019-03-16T02:40:19.904Z,99.90
2019-03-16T02:42:49.530Z,99.90
2019-03-16T02:45:19.200Z,99.90
2019-03-16T02:47:48.612Z,99.90
2019-03-16T02:50:18.255Z,99.90
2019-03-16T02:52:49.824Z,99.90
2019-03-16T02:55:18.717Z,99.90
2019-03-16T02:57:49.285Z,99.90
2019-03-16T03:00:19.034Z,99.90
2019-03-16T03:02:48.313Z,99.90
2019-03-16T03:05:17.673Z,99.90
2019-03-16T03:07:47.573Z,99.90
2019-03-16T03:10:17.303Z,99.90
2019-03-16T03:12:47.815Z,99.90
2019-03-16T03:15:17.362Z,99.90
2019-03-16T03:17:47.666Z,99.90
2019-03-16T03:20:17.974Z,99.90
2019-03-16T03:22:48.297Z,99.90
2019-03-16T03:25:18.743Z,99.90
2019-03-16T03:27:48.355Z,99.90
2019-03-16T03:30:17.689Z,99.90
2019-03-16T03:32:47.627Z,99.90
2019-03-16T03:35:17.457Z,99.90
2019-03-16T03:37:47.797Z,99.90
2019-03-16T03:40:19.621Z,99.90
2019-03-16T03:42:49.645Z,99.90
2019-03-16T03:45:19.651Z,99.90
2019-03-16T03:47:49.337Z,99.90
2019-03-16T03:50:19.268Z,99.90
2019-03-16T03:52:49.811Z,99.90
2019-03-16T03:55:19.604Z,99.90
2019-03-16T03:57:49.296Z,99.90
2019-03-16T04:00:19.101Z,99.90
2019-03-16T04:02:48.487Z,99.90
2019-03-16T04:05:19.698Z,99.90
2019-03-16T04:07:49.783Z,99.90
2019-03-16T04:10:21.038Z,99.90
2019-03-16T04:12:52.118Z,99.90
2019-03-16T04:15:22.262Z,99.90
2019-03-16T04:17:53.877Z,99.90
2019-03-16T04:20:25.149Z,99.90
2019-03-16T04:22:57.490Z,99.90
2019-03-16T04:25:27.616Z,99.90
2019-03-16T04:27:57.757Z,99.90
2019-03-16T04:30:27.400Z,99.90
2019-03-16T04:32:56.947Z,99.90
2019-03-16T04:35:27.036Z,99.90
2019-03-16T04:37:56.681Z,99.90
2019-03-16T04:40:26.291Z,99.90
2019-03-16T04:42:57.006Z,99.90
2019-03-16T04:45:26.945Z,99.90
2019-03-16T04:47:57.659Z,99.90
2019-03-16T04:50:27.526Z,99.90
2019-03-16T04:52:58.146Z,99.90
2019-03-16T04:55:28.102Z,99.90
2019-03-16T04:57:57.945Z,99.90
2019-03-16T05:00:28.593Z,99.90
2019-03-16T05:02:58.081Z,99.90
2019-03-16T05:05:28.696Z,99.90
2019-03-16T05:07:58.476Z,99.90
2019-03-16T05:10:28.237Z,99.90
2019-03-16T05:12:57.807Z,99.90
2019-03-16T05:15:27.427Z,99.90
2019-03-16T05:17:57.505Z,99.90
2019-03-16T05:20:33.642Z,99.90
2019-03-16T05:23:04.733Z,99.90
2019-03-16T05:25:35.980Z,99.90
2019-03-16T05:28:05.606Z,99.90
2019-03-16T05:30:35.332Z,99.90
2019-03-16T05:33:04.843Z,99.90
2019-03-16T05:35:34.749Z,99.90
2019-03-16T05:38:04.166Z,99.90
2019-03-16T05:40:33.811Z,99.90
2019-03-16T05:43:03.353Z,99.90
2019-03-16T05:45:32.803Z,99.90
2019-03-16T05:48:02.412Z,99.90
2019-03-16T05:50:32.216Z,99.90
2019-03-16T05:53:02.666Z,99.90
2019-03-16T05:55:32.026Z,99.90
2019-03-16T05:58:01.465Z,99.90
2019-03-16T06:00:30.913Z,99.90
2019-03-16T06:03:00.480Z,99.90
2019-03-16T06:05:30.572Z,99.90
2019-03-16T06:07:59.968Z,99.90
2019-03-16T06:10:29.574Z,99.90
2019-03-16T06:12:59.276Z,99.90
2019-03-16T06:15:28.739Z,99.90
2019-03-16T06:17:58.146Z,99.90
2019-03-16T06:20:27.611Z,99.90
2019-03-16T06:22:57.252Z,99.90
2019-03-16T06:25:29.756Z,99.90
2019-03-16T06:27:59.747Z,99.90
2019-03-16T06:30:29.320Z,99.90
2019-03-16T06:32:59.361Z,99.90
2019-03-16T06:35:29.536Z,99.90
2019-03-16T06:37:59.423Z,99.90
2019-03-16T06:40:28.742Z,99.90
2019-03-16T06:42:58.367Z,99.90
2019-03-16T06:45:28.705Z,99.90
2019-03-16T06:48:00.311Z,99.90
2019-03-16T06:50:29.935Z,99.90
2019-03-16T06:52:59.468Z,99.90
2019-03-16T06:55:29.195Z,99.90
2019-03-16T06:57:58.580Z,99.90
2019-03-16T07:00:28.288Z,99.90
2019-03-16T07:02:58.739Z,99.90
2019-03-16T07:05:37.712Z,99.90
2019-03-16T07:07:58.426Z,99.90
2019-03-16T07:10:28.004Z,99.90
2019-03-16T07:12:57.242Z,99.90
2019-03-16T07:15:27.201Z,99.90
2019-03-16T07:17:56.433Z,99.90
2019-03-16T07:20:25.824Z,99.90
2019-03-16T07:22:55.133Z,99.90
2019-03-16T07:25:24.453Z,99.90
2019-03-16T07:27:54.045Z,99.90
2019-03-16T07:30:23.891Z,99.90
2019-03-16T07:32:54.288Z,99.90
2019-03-16T07:35:24.074Z,99.90
2019-03-16T07:37:53.685Z,99.90
2019-03-16T07:40:23.326Z,99.90
2019-03-16T07:42:52.950Z,99.90
2019-03-16T07:45:23.363Z,99.90
2019-03-16T07:47:52.826Z,99.90
2019-03-16T07:50:22.336Z,99.90
2019-03-16T07:52:51.791Z,99.90
2019-03-16T07:55:21.154Z,99.90
2019-03-16T07:57:50.799Z,99.90
2019-03-16T08:00:20.185Z,99.90
2019-03-16T08:02:49.656Z,99.90
2019-03-16T08:05:20.587Z,99.90
2019-03-16T08:07:50.308Z,99.90
2019-03-16T08:10:19.747Z,99.90
2019-03-16T08:12:49.043Z,99.90
2019-03-16T08:15:18.344Z,99.90
2019-03-16T08:17:47.660Z,99.90
2019-03-16T08:20:17.244Z,99.90
2019-03-16T08:22:46.688Z,99.90
2019-03-16T08:25:16.309Z,99.90
2019-03-16T08:27:54.127Z,99.90
2019-03-16T08:30:15.498Z,99.90
2019-03-16T08:32:45.193Z,99.90
2019-03-16T08:35:15.140Z,99.90
2019-03-16T08:37:44.719Z,99.90
2019-03-16T08:40:14.306Z,99.90
2019-03-16T08:42:43.556Z,99.90
2019-03-16T08:45:13.210Z,99.90
2019-03-16T08:47:42.680Z,99.90
2019-03-16T08:50:12.972Z,99.90
2019-03-16T08:52:42.256Z,99.90
2019-03-16T08:55:11.507Z,99.90
2019-03-16T08:57:41.170Z,99.90
2019-03-16T09:00:12.159Z,99.90
2019-03-16T09:02:41.728Z,99.90
2019-03-16T09:05:11.370Z,99.90
2019-03-16T09:07:41.268Z,99.90
2019-03-16T09:10:10.867Z,99.90
2019-03-16T09:12:40.320Z,99.90
2019-03-16T09:15:17.070Z,99.90
2019-03-16T09:17:46.978Z,99.90
2019-03-16T09:20:16.686Z,99.90
2019-03-16T09:22:45.936Z,99.90
2019-03-16T09:25:16.189Z,99.90
2019-03-16T09:27:45.935Z,99.90
2019-03-16T09:30:17.705Z,99.90
2019-03-16T09:32:47.672Z,99.90
2019-03-16T09:35:17.919Z,99.90
2019-03-16T09:37:47.517Z,99.90
2019-03-16T09:40:17.626Z,99.90
2019-03-16T09:42:46.921Z,99.90
2019-03-16T09:45:16.347Z,99.90
2019-03-16T09:47:45.912Z,99.90
2019-03-16T09:50:15.232Z,99.90
2019-03-16T09:52:45.336Z,99.90
2019-03-16T09:55:14.711Z,99.90
2019-03-16T09:57:44.184Z,99.90
2019-03-16T10:00:16.712Z,99.90
2019-03-16T10:02:46.010Z,99.90
2019-03-16T10:05:16.045Z,99.90
2019-03-16T10:07:45.548Z,99.90
2019-03-16T10:10:16.168Z,99.90
2019-03-16T10:12:45.793Z,99.90
2019-03-16T10:15:15.351Z,99.90
2019-03-16T10:17:44.770Z,99.90
2019-03-16T10:20:16.329Z,99.90
2019-03-16T10:22:46.465Z,99.90
2019-03-16T10:25:15.957Z,99.90
2019-03-16T10:27:45.949Z,99.90
2019-03-16T10:30:15.753Z,99.90
2019-03-16T10:32:45.612Z,99.90
2019-03-16T10:35:15.279Z,99.90
2019-03-16T10:37:44.715Z,99.90
2019-03-16T10:40:14.537Z,99.90
2019-03-16T10:42:44.039Z,99.90
2019-03-16T10:45:13.531Z,99.90
2019-03-16T10:47:44.037Z,99.90
2019-03-16T10:50:14.323Z,99.90
2019-03-16T10:52:43.681Z,99.90
2019-03-16T10:55:13.302Z,99.90
2019-03-16T10:57:42.692Z,99.90
2019-03-16T11:00:13.648Z,99.90
2019-03-16T11:02:43.458Z,99.90
2019-03-16T11:05:13.072Z,99.90
2019-03-16T11:07:42.525Z,99.90
2019-03-16T11:10:14.194Z,99.90
2019-03-16T11:12:43.467Z,99.90
2019-03-16T11:15:13.220Z,99.90
2019-03-16T11:17:42.801Z,99.90
2019-03-16T11:20:13.435Z,99.90
2019-03-16T11:22:43.098Z,99.90
2019-03-16T11:25:12.577Z,99.90
2019-03-16T11:27:41.768Z,99.90
2019-03-16T11:30:13.677Z,99.90
2019-03-16T11:32:43.132Z,99.90
2019-03-16T11:35:12.940Z,99.90
2019-03-16T11:37:42.869Z,99.90
2019-03-16T11:40:14.020Z,99.90
2019-03-16T11:42:43.372Z,99.90
2019-03-16T11:45:16.725Z,99.90
2019-03-16T11:47:43.538Z,99.90
2019-03-16T11:50:13.106Z,99.90
2019-03-16T11:52:42.552Z,99.90
2019-03-16T11:55:12.031Z,99.90
2019-03-16T11:57:41.528Z,99.90
2019-03-16T12:00:11.483Z,99.90
2019-03-16T12:02:40.975Z,99.90
2019-03-16T12:05:11.406Z,99.90
2019-03-16T12:07:40.935Z,99.90
2019-03-16T12:10:10.829Z,99.90
2019-03-16T12:12:40.432Z,99.90
2019-03-16T12:15:10.268Z,99.90
2019-03-16T12:17:39.826Z,99.90
2019-03-16T12:20:12.736Z,99.90
2019-03-16T12:22:42.135Z,99.90
2019-03-16T12:25:12.543Z,99.90
2019-03-16T12:27:42.363Z,99.90
2019-03-16T12:30:14.272Z,99.90
2019-03-16T12:32:43.742Z,99.90
2019-03-16T12:35:13.865Z,99.90
2019-03-16T12:37:44.342Z,99.90
2019-03-16T12:40:15.434Z,99.90
2019-03-16T12:42:45.069Z,99.90
2019-03-16T12:45:14.531Z,99.90
2019-03-16T12:47:44.246Z,99.90
2019-03-16T12:50:13.561Z,99.90
2019-03-16T12:52:43.884Z,99.90
2019-03-16T12:55:14.407Z,99.90
2019-03-16T12:57:43.703Z,99.90
2019-03-16T13:00:17.083Z,99.90
2019-03-16T13:02:46.799Z,99.90
2019-03-16T13:05:16.294Z,99.90
2019-03-16T13:07:45.830Z,99.90
2019-03-16T13:10:16.843Z,99.90
2019-03-16T13:12:46.185Z,99.90
2019-03-16T13:15:15.875Z,99.90
2019-03-16T13:17:45.498Z,99.90
2019-03-16T13:20:15.414Z,99.90
2019-03-16T13:22:44.793Z,99.90
2019-03-16T13:25:14.523Z,99.90
2019-03-16T13:27:43.929Z,99.90
2019-03-16T13:30:17.181Z,99.90
2019-03-16T13:32:47.619Z,99.90
2019-03-16T13:35:17.653Z,99.90
2019-03-16T13:37:47.332Z,99.90
2019-03-16T13:40:17.161Z,99.90
2019-03-16T13:42:47.713Z,99.90
2019-03-16T13:45:18.528Z,99.90
2019-03-16T13:47:50.749Z,99.90
2019-03-16T13:50:20.210Z,99.90
2019-03-16T13:52:49.728Z,99.90
2019-03-16T13:55:19.217Z,99.90
2019-03-16T13:57:49.724Z,99.90
2019-03-16T14:00:19.671Z,99.90
2019-03-16T14:02:49.524Z,99.90
2019-03-16T14:05:19.097Z,99.90
2019-03-16T14:07:49.043Z,99.90
2019-03-16T14:10:20.699Z,99.90
2019-03-16T14:12:50.329Z,99.90
2019-03-16T14:15:20.089Z,99.90
2019-03-16T14:17:49.916Z,99.90
2019-03-16T14:20:19.714Z,99.90
2019-03-16T14:22:49.166Z,99.90
2019-03-16T14:25:19.530Z,99.90
2019-03-16T14:27:49.343Z,99.90
2019-03-16T14:30:39.113Z,99.90
2019-03-16T14:32:50.321Z,99.90
2019-03-16T14:35:19.484Z,99.90
2019-03-16T14:37:49.224Z,99.90
2019-03-16T14:40:18.776Z,99.90
2019-03-16T14:42:48.611Z,99.90
2019-03-16T14:45:18.426Z,99.90
2019-03-16T14:47:48.148Z,99.90
2019-03-16T14:50:19.681Z,99.90
2019-03-16T14:52:49.300Z,99.90
2019-03-16T14:55:18.835Z,99.90
2019-03-16T14:57:48.203Z,99.90
2019-03-16T15:00:19.550Z,99.90
2019-03-16T15:02:49.200Z,99.90
2019-03-16T15:05:18.894Z,99.90
2019-03-16T15:07:49.924Z,99.90
2019-03-16T15:10:18.578Z,99.90
2019-03-16T15:12:48.026Z,99.90
2019-03-16T15:15:18.715Z,99.90
2019-03-16T15:17:48.611Z,99.90
2019-03-16T15:20:18.119Z,99.90
2019-03-16T15:22:47.531Z,99.90
2019-03-16T15:25:17.114Z,99.90
2019-03-16T15:27:46.541Z,99.90
2019-03-16T15:30:19.740Z,99.90
2019-03-16T15:32:49.322Z,99.90
2019-03-16T15:35:19.041Z,99.90
2019-03-16T15:37:48.424Z,99.90
2019-03-16T15:40:19.340Z,99.90
2019-03-16T15:42:49.103Z,99.90
2019-03-16T15:45:28.330Z,99.90
2019-03-16T15:47:57.970Z,99.90
2019-03-16T15:50:28.418Z,99.90
2019-03-16T15:52:57.856Z,99.90
2019-03-16T15:55:28.254Z,99.90
2019-03-16T15:58:07.355Z,99.90
2019-03-16T16:00:27.700Z,97.80
2019-03-16T16:02:57.123Z,94.90
2019-03-16T16:05:27.276Z,95.00
2019-03-16T16:07:56.727Z,94.70
2019-03-16T16:10:26.283Z,92.70
2019-03-16T16:12:55.699Z,86.60
2019-03-16T16:15:25.298Z,74.10
2019-03-16T16:17:55.568Z,66.90
2019-03-16T16:20:25.088Z,57.40
2019-03-16T16:22:54.779Z,50.00
2019-03-16T16:25:24.360Z,43.30
2019-03-16T16:27:54.001Z,40.80
2019-03-16T16:30:23.514Z,36.90
2019-03-16T16:32:52.782Z,37.10
2019-03-16T16:35:22.415Z,37.80
2019-03-16T16:37:51.892Z,40.00
2019-03-16T16:40:21.827Z,40.80
2019-03-16T16:42:51.258Z,42.90
2019-03-16T16:45:20.875Z,44.60
2019-03-16T16:47:50.449Z,44.30
2019-03-16T16:50:21.707Z,42.50
2019-03-16T16:52:51.811Z,38.30
2019-03-16T16:55:21.520Z,38.20
2019-03-16T16:57:51.083Z,38.00
2019-03-16T17:00:21.660Z,38.40
2019-03-16T17:02:51.202Z,36.80
2019-03-16T17:05:20.967Z,35.50
2019-03-16T17:07:51.192Z,34.80
2019-03-16T17:10:20.709Z,35.00
2019-03-16T17:12:50.988Z,31.00
2019-03-16T17:15:21.251Z,30.90
2019-03-16T17:17:50.487Z,30.30
2019-03-16T17:20:19.947Z,28.80
2019-03-16T17:22:49.574Z,27.30
2019-03-16T17:25:19.708Z,27.30
2019-03-16T17:27:49.340Z,26.50
2019-03-16T17:30:27.907Z,26.40
2019-03-16T17:32:57.245Z,26.30
2019-03-16T17:35:26.975Z,25.80
2019-03-16T17:37:56.519Z,25.60
2019-03-16T17:40:26.330Z,25.10
2019-03-16T17:42:55.785Z,24.60
2019-03-16T17:45:25.988Z,24.90
2019-03-16T17:47:55.511Z,24.80
2019-03-16T17:50:25.351Z,25.10
2019-03-16T17:52:55.341Z,23.50
2019-03-16T17:55:25.161Z,23.30
2019-03-16T17:57:55.166Z,22.50
2019-03-16T18:00:24.905Z,21.20
2019-03-16T18:02:54.574Z,21.40
2019-03-16T18:05:24.045Z,20.40
2019-03-16T18:07:53.597Z,19.80
2019-03-16T18:10:23.485Z,19.50
2019-03-16T18:12:53.305Z,18.70
2019-03-16T18:15:22.877Z,19.90
2019-03-16T18:17:52.503Z,20.50
2019-03-16T18:20:22.951Z,23.60
2019-03-16T18:22:53.490Z,24.70
2019-03-16T18:25:23.093Z,24.60
2019-03-16T18:27:53.560Z,25.00
2019-03-16T18:30:23.668Z,25.00
2019-03-16T18:32:53.218Z,24.80
2019-03-16T18:35:22.828Z,26.90
2019-03-16T18:37:52.234Z,28.00
2019-03-16T18:40:21.689Z,29.90
2019-03-16T18:42:52.443Z,28.60
2019-03-16T18:45:29.950Z,28.50
2019-03-16T18:47:59.233Z,26.80
2019-03-16T18:50:28.732Z,26.10
2019-03-16T18:52:58.256Z,27.20
2019-03-16T18:55:29.016Z,28.00
2019-03-16T18:57:58.722Z,28.50
2019-03-16T19:00:28.174Z,28.60
2019-03-16T19:02:57.552Z,27.70
2019-03-16T19:05:27.372Z,28.70
2019-03-16T19:07:56.933Z,30.80
2019-03-16T19:10:26.362Z,34.20
2019-03-16T19:12:55.881Z,36.00
2019-03-16T19:15:26.024Z,37.70
2019-03-16T19:17:59.107Z,36.30
2019-03-16T19:20:26.704Z,36.20
2019-03-16T19:22:56.229Z,33.20
2019-03-16T19:25:26.010Z,30.10
2019-03-16T19:27:55.399Z,28.40
2019-03-16T19:30:24.714Z,28.00
2019-03-16T19:32:54.703Z,27.00
2019-03-16T19:35:24.445Z,27.20
2019-03-16T19:37:53.921Z,28.70
2019-03-16T19:40:23.880Z,29.10
2019-03-16T19:42:53.885Z,30.00
2019-03-16T19:45:23.322Z,29.70
2019-03-16T19:47:54.675Z,29.90
2019-03-16T19:50:24.413Z,29.90
2019-03-16T19:52:54.090Z,29.70
2019-03-16T19:55:24.541Z,26.10
2019-03-16T19:57:54.098Z,26.00
2019-03-16T20:00:23.784Z,24.50
2019-03-16T20:02:53.376Z,22.60
2019-03-16T20:05:23.115Z,21.10
2019-03-16T20:07:52.759Z,20.00
2019-03-16T20:10:22.496Z,19.70
2019-03-16T20:12:53.382Z,19.70
2019-03-16T20:15:22.087Z,20.30
2019-03-16T20:17:51.891Z,20.70
2019-03-16T20:20:21.766Z,21.10
2019-03-16T20:22:51.249Z,21.30
2019-03-16T20:25:20.935Z,21.10
2019-03-16T20:27:50.666Z,22.30
2019-03-16T20:30:26.447Z,24.00
2019-03-16T20:33:02.641Z,24.60
2019-03-16T20:35:20.306Z,27.10
2019-03-16T20:37:50.190Z,28.10
2019-03-16T20:40:19.854Z,29.00
2019-03-16T20:42:49.829Z,31.20
2019-03-16T20:45:19.924Z,32.00
2019-03-16T20:47:49.444Z,32.80
2019-03-16T20:50:19.316Z,34.50
2019-03-16T20:52:49.084Z,35.80
2019-03-16T20:55:19.971Z,36.60
2019-03-16T20:57:49.537Z,37.80
2019-03-16T21:00:19.260Z,38.50
2019-03-16T21:02:52.516Z,39.10
2019-03-16T21:05:27.233Z,39.10
2019-03-16T21:07:56.645Z,39.70
2019-03-16T21:10:26.628Z,39.70
2019-03-16T21:12:56.263Z,39.60
2019-03-16T21:15:25.989Z,39.50
2019-03-16T21:17:55.982Z,39.50
2019-03-16T21:20:25.421Z,38.80
2019-03-16T21:22:55.935Z,39.90
2019-03-16T21:25:25.423Z,39.90
2019-03-16T21:27:55.027Z,39.50
2019-03-16T21:30:25.007Z,39.80
2019-03-16T21:32:54.761Z,40.00
2019-03-16T21:35:24.111Z,39.90
2019-03-16T21:37:53.912Z,39.40
2019-03-16T21:40:24.534Z,39.90
2019-03-16T21:42:54.270Z,39.90
2019-03-16T21:45:25.525Z,41.40
2019-03-16T21:48:00.059Z,40.00
2019-03-16T21:50:24.862Z,40.90
2019-03-16T21:52:54.439Z,39.70
2019-03-16T21:55:24.431Z,40.10
2019-03-16T21:57:54.215Z,41.90
2019-03-16T22:00:23.638Z,41.70
2019-03-16T22:02:53.430Z,41.50
2019-03-16T22:05:22.902Z,42.70
2019-03-16T22:07:52.601Z,42.40
2019-03-16T22:10:22.270Z,43.50
2019-03-16T22:12:52.177Z,42.90
2019-03-16T22:15:21.843Z,43.10
2019-03-16T22:17:51.416Z,43.30
2019-03-16T22:20:21.649Z,44.20
2019-03-16T22:22:51.688Z,44.20
2019-03-16T22:25:22.339Z,44.30
2019-03-16T22:27:52.171Z,44.10
2019-03-16T22:30:21.655Z,44.20
2019-03-16T22:32:51.559Z,43.30
2019-03-16T22:35:21.128Z,44.10
2019-03-16T22:37:51.119Z,44.00
2019-03-16T22:40:21.192Z,43.30
2019-03-16T22:42:51.025Z,42.20
2019-03-16T22:45:20.616Z,42.80
2019-03-16T22:47:50.536Z,42.90
2019-03-16T22:50:21.468Z,43.10
2019-03-16T22:52:51.107Z,43.30
2019-03-16T22:55:21.623Z,43.40
2019-03-16T22:57:51.197Z,43.10
2019-03-16T23:03:39.826Z,43.90
2019-03-16T23:06:09.230Z,43.80
2019-03-16T23:08:38.613Z,44.20
2019-03-16T23:11:08.072Z,44.60
2019-03-16T23:13:37.602Z,44.60
2019-03-16T23:16:08.177Z,45.40
2019-03-16T23:18:37.919Z,45.50
2019-03-16T23:21:07.415Z,44.60
2019-03-16T23:23:36.712Z,44.40
2019-03-16T23:26:06.241Z,45.00
2019-03-16T23:28:35.847Z,44.90
2019-03-16T23:31:05.372Z,44.80
2019-03-16T23:33:35.104Z,44.80
2019-03-16T23:36:04.815Z,45.40
2019-03-16T23:38:34.166Z,45.60
2019-03-16T23:41:04.238Z,45.60
2019-03-16T23:43:33.420Z,46.40
2019-03-16T23:46:03.090Z,45.10
2019-03-16T23:48:33.027Z,45.00
2019-03-16T23:51:02.535Z,45.10
2019-03-16T23:53:32.163Z,46.40
2019-03-16T23:56:01.486Z,45.60
2019-03-16T23:58:30.803Z,45.30
